Time;durP1;ratioP1;P1;durP2;ratioP2;P2;SDS_P1;SDS_P2;PMS_P1;PMS_P2;Temp;Humidity;BMP_temperature;BMP_pressure;BME280_temperature;BME280_humidity;BME280_pressure;Samples;Min_cycle;Max_cycle;Signal;HPM_P1;HPM_P2
2024/03/15 00:01:03;;;;;;;43.70;37.97;;;10.20;99.90;;;;;;4970112;28;20042;-69
2024/03/15 00:03:30;;;;;;;44.88;37.55;;;10.40;99.90;;;;;;4971166;28;20050;-68
2024/03/15 00:05:58;;;;;;;47.97;40.20;;;10.30;99.90;;;;;;4965502;28;20073;-69
2024/03/15 00:08:26;;;;;;;43.78;37.95;;;10.30;99.90;;;;;;4974744;28;20046;-69
2024/03/15 00:10:54;;;;;;;45.47;38.97;;;10.40;99.90;;;;;;4963334;28;20138;-67
2024/03/15 00:13:21;;;;;;;46.17;37.03;;;10.30;99.90;;;;;;4956144;28;20502;-70
2024/03/15 00:15:48;;;;;;;40.95;36.58;;;10.40;99.90;;;;;;4951711;28;20283;-69
2024/03/15 00:18:17;;;;;;;40.97;36.03;;;10.30;99.90;;;;;;4971575;28;20042;-69
2024/03/15 00:20:45;;;;;;;48.00;35.97;;;10.30;99.90;;;;;;4971230;28;20046;-70
2024/03/15 00:23:12;;;;;;;39.65;35.13;;;10.40;99.90;;;;;;4952352;28;20139;-69
2024/03/15 00:25:41;;;;;;;38.72;34.60;;;10.20;99.90;;;;;;4965218;28;20054;-70
2024/03/15 00:28:08;;;;;;;44.95;37.40;;;10.20;99.90;;;;;;4953121;28;20542;-69
2024/03/15 00:30:35;;;;;;;40.35;34.47;;;10.20;99.90;;;;;;4964168;28;20082;-70
2024/03/15 00:33:02;;;;;;;39.83;34.47;;;10.20;99.90;;;;;;4981112;28;20764;-68
2024/03/15 00:35:30;;;;;;;41.45;35.60;;;10.30;99.90;;;;;;4946807;28;20050;-69
2024/03/15 00:37:57;;;;;;;43.80;36.88;;;10.20;99.90;;;;;;4964964;28;20046;-69
2024/03/15 00:40:24;;;;;;;40.65;36.25;;;10.30;99.90;;;;;;4971271;28;20137;-69
2024/03/15 00:42:51;;;;;;;39.10;34.42;;;10.20;99.90;;;;;;4973099;28;20550;-68
2024/03/15 00:45:18;;;;;;;46.95;36.65;;;10.20;99.90;;;;;;4966604;28;20042;-69
2024/03/15 00:47:45;;;;;;;43.17;36.25;;;10.30;99.90;;;;;;4955520;28;20074;-69
2024/03/15 00:50:12;;;;;;;41.50;35.97;;;10.20;99.90;;;;;;4954351;28;20051;-69
2024/03/15 00:52:39;;;;;;;43.22;36.10;;;10.20;99.90;;;;;;4965654;28;20053;-69
2024/03/15 00:55:08;;;;;;;44.30;35.78;;;10.20;99.90;;;;;;4970407;28;20041;-69
2024/03/15 00:57:36;;;;;;;41.20;35.17;;;10.20;99.90;;;;;;4970716;28;20042;-69
2024/03/15 01:00:04;;;;;;;44.50;36.65;;;10.20;99.90;;;;;;4950900;28;20047;-70
2024/03/15 01:02:31;;;;;;;48.42;37.17;;;10.10;99.90;;;;;;4964391;28;20080;-69
2024/03/15 01:04:59;;;;;;;46.03;36.30;;;10.00;99.90;;;;;;4962812;28;20039;-68
2024/03/15 01:07:27;;;;;;;44.83;36.38;;;10.00;99.90;;;;;;4956249;28;20045;-69
2024/03/15 01:09:54;;;;;;;48.08;37.28;;;9.90;99.90;;;;;;4954842;28;20052;-69
2024/03/15 01:12:22;;;;;;;50.80;38.05;;;9.90;99.90;;;;;;4973195;28;20072;-68
2024/03/15 01:14:49;;;;;;;45.35;35.20;;;9.80;99.90;;;;;;4953458;28;21299;-70
2024/03/15 01:17:16;;;;;;;44.55;35.83;;;9.80;99.90;;;;;;4962432;28;20121;-68
2024/03/15 01:19:45;;;;;;;50.70;35.15;;;9.80;99.90;;;;;;4969154;28;20659;-68
2024/03/15 01:22:12;;;;;;;46.38;35.97;;;9.70;99.90;;;;;;4971789;28;20723;-70
2024/03/15 01:24:39;;;;;;;46.05;33.60;;;9.60;99.90;;;;;;4966982;28;20043;-68
2024/03/15 01:27:07;;;;;;;46.45;34.28;;;9.70;99.90;;;;;;4986586;28;20113;-70
2024/03/15 01:29:34;;;;;;;50.20;37.20;;;9.70;99.90;;;;;;4953784;28;20050;-68
2024/03/15 01:32:01;;;;;;;53.65;38.53;;;9.70;99.90;;;;;;4966743;28;20121;-68
2024/03/15 01:34:28;;;;;;;50.70;35.42;;;9.70;99.90;;;;;;4971471;28;20046;-70
2024/03/15 01:36:55;;;;;;;52.45;36.65;;;9.80;99.90;;;;;;4967462;28;20399;-69
2024/03/15 01:39:24;;;;;;;51.90;36.17;;;9.70;99.90;;;;;;4974409;28;20101;-69
2024/03/15 01:41:51;;;;;;;51.97;35.88;;;9.60;99.90;;;;;;4969561;28;20056;-68
2024/03/15 01:44:19;;;;;;;51.92;35.53;;;9.60;99.90;;;;;;4955489;28;20048;-69
2024/03/15 01:46:45;;;;;;;53.97;37.80;;;9.60;99.90;;;;;;4969525;28;20043;-69
2024/03/15 01:49:12;;;;;;;53.47;35.33;;;9.60;99.90;;;;;;4972673;28;20450;-69
2024/03/15 01:51:40;;;;;;;53.08;36.88;;;9.60;99.90;;;;;;4972911;28;20042;-67
2024/03/15 01:54:07;;;;;;;51.15;37.00;;;9.60;99.90;;;;;;4968020;28;20109;-69
2024/03/15 01:56:34;;;;;;;49.63;32.85;;;9.50;99.90;;;;;;4980915;28;20046;-69
2024/03/15 01:59:01;;;;;;;58.70;36.67;;;9.40;99.90;;;;;;4974020;28;20616;-68
2024/03/15 02:01:28;;;;;;;53.25;35.65;;;9.40;99.90;;;;;;4969307;28;20133;-68
2024/03/15 02:03:56;;;;;;;49.72;35.15;;;9.50;99.90;;;;;;4969342;28;20065;-68
2024/03/15 02:06:23;;;;;;;47.15;34.08;;;9.50;99.90;;;;;;4983904;28;20093;-69
2024/03/15 02:08:55;;;;;;;47.90;36.03;;;9.50;99.90;;;;;;4960139;28;20046;-68
2024/03/15 02:11:23;;;;;;;48.75;34.95;;;9.40;99.90;;;;;;4961257;28;20066;-68
2024/03/15 02:13:52;;;;;;;46.70;35.60;;;9.50;99.90;;;;;;4969610;28;20046;-69
2024/03/15 02:16:20;;;;;;;47.53;35.80;;;9.50;99.90;;;;;;4951943;28;20047;-69
2024/03/15 02:18:50;;;;;;;45.10;34.45;;;9.50;99.90;;;;;;4957727;28;20652;-69
2024/03/15 02:21:17;;;;;;;48.95;36.13;;;9.50;99.90;;;;;;4960733;28;20515;-69
2024/03/15 02:23:44;;;;;;;49.22;34.72;;;9.50;99.90;;;;;;4964318;28;20054;-69
2024/03/15 02:26:11;;;;;;;48.75;34.78;;;9.40;99.90;;;;;;4969304;28;20357;-67
2024/03/15 02:28:38;;;;;;;42.03;31.65;;;9.40;99.90;;;;;;4967748;28;20060;-68
2024/03/15 02:31:06;;;;;;;41.25;31.00;;;9.40;99.90;;;;;;4973822;28;20046;-67
2024/03/15 02:33:34;;;;;;;41.85;31.90;;;9.30;99.90;;;;;;4976782;28;20120;-70
2024/03/15 02:36:01;;;;;;;38.28;30.52;;;9.20;99.90;;;;;;4973630;28;20054;-68
2024/03/15 02:38:28;;;;;;;39.42;30.85;;;9.20;99.90;;;;;;4951790;28;20050;-69
2024/03/15 02:40:55;;;;;;;43.35;31.02;;;9.20;99.90;;;;;;4956144;28;20053;-69
2024/03/15 02:43:22;;;;;;;37.42;28.83;;;9.20;99.90;;;;;;4964841;28;20398;-68
2024/03/15 02:45:50;;;;;;;36.28;27.67;;;9.10;99.90;;;;;;4968417;28;20074;-68
2024/03/15 02:48:17;;;;;;;40.35;29.08;;;9.10;99.90;;;;;;4973832;28;20612;-69
2024/03/15 02:50:45;;;;;;;34.97;27.20;;;9.00;99.90;;;;;;4984865;28;20336;-68
2024/03/15 02:53:12;;;;;;;36.28;28.08;;;9.00;99.90;;;;;;4974919;28;20054;-68
2024/03/15 02:55:38;;;;;;;30.05;26.80;;;9.00;99.90;;;;;;4975464;28;20049;-68
2024/03/15 02:58:07;;;;;;;32.75;26.10;;;9.00;99.90;;;;;;4973655;28;20050;-69
2024/03/15 03:00:34;;;;;;;30.23;26.77;;;9.00;99.90;;;;;;4973097;28;20057;-69
2024/03/15 03:03:02;;;;;;;28.73;25.35;;;9.00;99.90;;;;;;4956550;28;20081;-68
2024/03/15 03:05:30;;;;;;;32.92;27.25;;;9.00;99.90;;;;;;4977020;28;20042;-69
2024/03/15 03:07:58;;;;;;;31.38;26.35;;;9.00;99.90;;;;;;4976916;28;20110;-68
2024/03/15 03:10:27;;;;;;;27.42;24.50;;;8.90;99.90;;;;;;4976789;28;20056;-70
2024/03/15 03:12:54;;;;;;;35.00;26.42;;;8.90;99.90;;;;;;4968866;28;20057;-67
2024/03/15 03:15:22;;;;;;;31.40;25.17;;;9.00;99.90;;;;;;4973025;28;20050;-68
2024/03/15 03:17:49;;;;;;;32.33;24.25;;;8.90;99.90;;;;;;4976575;28;20065;-69
2024/03/15 03:20:21;;;;;;;30.35;24.23;;;8.90;99.90;;;;;;4983600;28;20054;-69
2024/03/15 03:22:53;;;;;;;29.48;23.90;;;8.90;99.90;;;;;;4978507;28;20117;-69
2024/03/15 03:25:21;;;;;;;33.53;24.50;;;8.80;99.90;;;;;;4972933;28;20074;-69
2024/03/15 03:27:48;;;;;;;29.35;23.10;;;8.80;99.90;;;;;;4979353;28;20193;-68
2024/03/15 03:30:15;;;;;;;26.50;22.58;;;8.70;99.90;;;;;;4967243;28;20512;-70
2024/03/15 03:32:43;;;;;;;31.73;24.30;;;8.50;99.90;;;;;;4978437;28;20035;-69
2024/03/15 03:35:10;;;;;;;29.55;23.38;;;8.50;99.90;;;;;;4967954;28;20936;-70
2024/03/15 03:37:37;;;;;;;31.60;24.20;;;8.60;99.90;;;;;;4978017;28;20069;-69
2024/03/15 03:40:14;;;;;;;29.83;22.85;;;8.50;99.90;;;;;;4965656;28;20050;-70
2024/03/15 03:42:44;;;;;;;30.58;23.17;;;8.50;99.90;;;;;;4967646;28;20055;-69
2024/03/15 03:45:19;;;;;;;29.88;22.60;;;8.40;99.90;;;;;;4967230;28;20139;-70
2024/03/15 03:47:50;;;;;;;31.17;24.30;;;8.40;99.90;;;;;;4970901;28;20124;-69
2024/03/15 03:50:17;;;;;;;32.67;22.55;;;8.40;99.90;;;;;;4996601;28;20305;-70
2024/03/15 03:52:46;;;;;;;28.95;22.83;;;8.50;99.90;;;;;;4966726;28;20046;-69
2024/03/15 03:55:17;;;;;;;29.38;23.05;;;8.60;99.90;;;;;;4963718;28;20638;-70
2024/03/15 03:57:44;;;;;;;31.10;23.13;;;8.70;99.90;;;;;;4975850;28;20054;-69
2024/03/15 04:00:16;;;;;;;29.58;21.20;;;8.80;99.90;;;;;;4966138;28;20042;-69
2024/03/15 04:02:45;;;;;;;27.23;22.02;;;8.70;99.90;;;;;;4949572;28;20097;-69
2024/03/15 04:05:14;;;;;;;29.17;22.83;;;8.60;99.90;;;;;;4965187;28;20284;-68
2024/03/15 04:07:46;;;;;;;25.42;21.60;;;8.70;99.90;;;;;;4971378;28;20510;-70
2024/03/15 04:10:14;;;;;;;24.83;22.13;;;8.70;99.90;;;;;;4967925;28;20042;-69
2024/03/15 04:12:45;;;;;;;30.60;22.27;;;8.60;99.90;;;;;;4972952;28;20042;-68
2024/03/15 04:15:14;;;;;;;30.85;22.88;;;8.50;99.90;;;;;;4968044;28;20068;-69
2024/03/15 04:17:57;;;;;;;24.63;20.85;;;8.40;99.90;;;;;;4977224;28;20061;-68
2024/03/15 04:20:26;;;;;;;24.08;21.45;;;8.40;99.90;;;;;;4969609;28;20050;-69
2024/03/15 04:22:55;;;;;;;27.25;20.20;;;8.50;99.90;;;;;;4966134;28;20144;-69
2024/03/15 04:25:24;;;;;;;29.08;20.58;;;8.60;99.90;;;;;;4953843;28;20050;-68
2024/03/15 04:27:51;;;;;;;23.77;18.02;;;8.70;99.90;;;;;;4985791;28;20050;-69
2024/03/15 04:30:22;;;;;;;23.83;18.67;;;8.80;99.90;;;;;;4962506;28;20055;-68
2024/03/15 04:32:50;;;;;;;20.55;18.38;;;8.90;99.90;;;;;;4996047;28;20050;-69
2024/03/15 04:35:18;;;;;;;24.80;18.80;;;8.90;99.90;;;;;;4964972;28;20761;-69
2024/03/15 04:37:45;;;;;;;22.55;19.67;;;9.00;99.90;;;;;;4978555;28;20114;-68
2024/03/15 04:40:14;;;;;;;21.42;19.25;;;9.00;99.90;;;;;;4970672;28;20451;-70
2024/03/15 04:42:42;;;;;;;22.13;19.58;;;9.00;99.90;;;;;;4976639;28;20109;-68
2024/03/15 04:45:09;;;;;;;22.67;20.02;;;8.90;99.90;;;;;;4972831;28;20129;-69
2024/03/15 04:47:38;;;;;;;23.30;19.42;;;8.80;99.90;;;;;;4977355;28;20683;-68
2024/03/15 04:50:07;;;;;;;21.27;19.10;;;8.90;99.90;;;;;;4970232;28;20697;-69
2024/03/15 04:52:34;;;;;;;26.00;20.67;;;8.80;99.90;;;;;;4958235;28;20491;-68
2024/03/15 04:55:02;;;;;;;23.80;20.95;;;8.80;99.90;;;;;;4971732;28;20141;-69
2024/03/15 04:57:29;;;;;;;22.67;20.50;;;8.80;99.90;;;;;;4974651;28;20105;-70
2024/03/15 04:59:57;;;;;;;24.75;21.80;;;8.80;99.90;;;;;;4972957;28;20117;-68
2024/03/15 05:02:24;;;;;;;22.88;20.58;;;8.70;99.90;;;;;;4967960;28;20061;-69
2024/03/15 05:04:51;;;;;;;23.05;20.80;;;8.70;99.90;;;;;;4969264;28;20523;-69
2024/03/15 05:07:18;;;;;;;22.35;20.10;;;8.70;99.90;;;;;;4968988;28;20587;-68
2024/03/15 05:09:45;;;;;;;20.92;18.92;;;8.70;99.90;;;;;;4973381;28;20045;-69
2024/03/15 05:12:12;;;;;;;20.73;18.10;;;8.70;99.90;;;;;;4971015;28;20141;-68
2024/03/15 05:14:40;;;;;;;20.77;18.40;;;8.80;99.90;;;;;;4975679;28;20133;-70
2024/03/15 05:17:07;;;;;;;19.38;17.38;;;8.90;99.90;;;;;;4968405;28;20525;-69
2024/03/15 05:19:34;;;;;;;18.50;16.67;;;9.00;99.90;;;;;;4977442;28;20074;-69
2024/03/15 05:22:06;;;;;;;20.95;18.15;;;9.00;99.90;;;;;;4970424;28;20042;-69
2024/03/15 05:24:33;;;;;;;20.05;18.08;;;9.10;99.90;;;;;;4974430;28;20349;-67
2024/03/15 05:27:02;;;;;;;19.88;18.08;;;9.10;99.90;;;;;;4960078;28;20590;-69
2024/03/15 05:29:29;;;;;;;22.50;19.10;;;9.10;99.90;;;;;;4983275;28;20051;-69
2024/03/15 05:31:57;;;;;;;19.85;17.98;;;9.10;99.90;;;;;;4965659;28;20046;-69
2024/03/15 05:34:24;;;;;;;21.75;19.38;;;9.10;99.90;;;;;;4968841;28;20070;-70
2024/03/15 05:36:51;;;;;;;24.27;20.98;;;9.20;99.90;;;;;;4973353;28;20116;-68
2024/03/15 05:39:18;;;;;;;21.23;19.10;;;9.20;99.90;;;;;;4972723;28;20705;-68
2024/03/15 05:41:45;;;;;;;22.02;19.90;;;9.30;99.90;;;;;;4975945;28;20148;-69
2024/03/15 05:44:12;;;;;;;22.05;19.42;;;9.30;99.90;;;;;;4964005;28;20042;-70
2024/03/15 05:46:41;;;;;;;21.17;19.17;;;9.30;99.90;;;;;;4978303;28;20052;-68
2024/03/15 05:49:09;;;;;;;18.80;17.10;;;9.30;99.90;;;;;;4973751;28;20054;-69
2024/03/15 05:51:36;;;;;;;20.75;15.88;;;9.50;99.90;;;;;;4969112;28;20046;-70
2024/03/15 05:54:04;;;;;;;17.17;15.48;;;9.60;99.90;;;;;;4966935;28;20057;-69
2024/03/15 05:56:31;;;;;;;20.30;16.88;;;9.70;99.90;;;;;;4980204;28;20047;-68
2024/03/15 05:58:58;;;;;;;19.15;17.45;;;9.80;99.90;;;;;;4977891;28;20042;-68
2024/03/15 06:01:25;;;;;;;20.17;18.05;;;9.90;99.90;;;;;;4960953;28;20133;-68
2024/03/15 06:03:52;;;;;;;18.20;16.60;;;10.10;99.90;;;;;;4972590;28;20152;-69
2024/03/15 06:06:19;;;;;;;20.42;18.50;;;10.10;99.90;;;;;;4979318;28;21231;-68
2024/03/15 06:08:48;;;;;;;21.10;19.13;;;10.10;99.90;;;;;;4975996;28;20407;-69
2024/03/15 06:11:15;;;;;;;20.80;19.00;;;10.10;99.90;;;;;;4975948;28;20736;-69
2024/03/15 06:13:42;;;;;;;21.63;19.80;;;10.30;99.90;;;;;;4974197;28;20118;-69
2024/03/15 06:16:13;;;;;;;22.02;20.10;;;10.30;99.90;;;;;;4975682;28;20054;-69
2024/03/15 06:18:41;;;;;;;22.33;20.17;;;10.40;99.90;;;;;;4980372;28;20046;-69
2024/03/15 06:21:09;;;;;;;20.83;19.05;;;10.40;99.90;;;;;;4971904;28;20054;-69
2024/03/15 06:23:36;;;;;;;20.15;18.63;;;10.50;99.90;;;;;;4969595;28;20064;-68
2024/03/15 06:26:03;;;;;;;19.65;17.70;;;10.60;99.90;;;;;;4969521;28;20074;-70
2024/03/15 06:28:30;;;;;;;20.42;18.63;;;10.80;99.90;;;;;;4973480;28;20376;-69
2024/03/15 06:30:58;;;;;;;20.10;18.67;;;10.90;99.90;;;;;;4977472;28;20239;-69
2024/03/15 06:33:31;;;;;;;19.38;17.77;;;11.00;99.90;;;;;;4969852;28;20058;-69
2024/03/15 06:36:00;;;;;;;20.23;18.67;;;11.10;99.90;;;;;;4949576;28;20050;-68
2024/03/15 06:38:30;;;;;;;20.15;18.42;;;11.20;99.90;;;;;;4973886;28;20050;-69
2024/03/15 06:41:07;;;;;;;21.40;19.77;;;11.30;99.90;;;;;;4988776;28;20050;-70
2024/03/15 06:43:45;;;;;;;22.13;20.05;;;11.40;99.90;;;;;;4976252;28;20404;-70
2024/03/15 06:46:24;;;;;;;22.13;20.42;;;11.40;99.90;;;;;;4973404;28;20673;-69
2024/03/15 06:48:57;;;;;;;22.67;20.95;;;11.60;99.90;;;;;;4969099;28;20062;-69
2024/03/15 06:54:14;;;;;;;23.05;21.45;;;11.70;99.90;;;;;;4986891;28;20897;-70
2024/03/15 06:56:42;;;;;;;23.80;21.90;;;11.80;99.90;;;;;;4965560;28;20439;-68
2024/03/15 06:59:10;;;;;;;23.02;21.08;;;11.80;99.90;;;;;;4945954;28;20046;-70
2024/03/15 07:01:37;;;;;;;23.67;21.98;;;11.90;99.90;;;;;;4964323;28;20157;-69
2024/03/15 07:04:07;;;;;;;24.27;22.38;;;12.00;99.90;;;;;;4967032;28;20055;-68
2024/03/15 07:06:35;;;;;;;25.10;22.80;;;12.10;99.90;;;;;;4968889;28;20038;-69
2024/03/15 07:09:14;;;;;;;23.63;21.85;;;12.20;99.90;;;;;;4968779;28;20042;-70
2024/03/15 07:11:47;;;;;;;24.33;22.48;;;12.20;99.90;;;;;;4969825;28;20046;-69
2024/03/15 07:14:15;;;;;;;24.33;22.17;;;12.20;99.90;;;;;;4956723;28;20053;-69
2024/03/15 07:16:42;;;;;;;23.65;21.83;;;12.30;99.90;;;;;;4965923;28;20052;-68
2024/03/15 07:19:13;;;;;;;22.58;20.90;;;12.30;99.90;;;;;;4974243;28;20061;-69
2024/03/15 07:21:42;;;;;;;23.30;21.60;;;12.40;99.90;;;;;;4971723;28;20058;-69
2024/03/15 07:24:10;;;;;;;25.23;23.52;;;12.40;99.90;;;;;;4968103;28;20054;-69
2024/03/15 07:26:39;;;;;;;25.35;23.65;;;12.50;99.90;;;;;;4965846;28;20206;-68
2024/03/15 07:29:06;;;;;;;29.35;27.50;;;12.70;99.90;;;;;;4961829;28;20066;-68
2024/03/15 07:31:33;;;;;;;31.25;29.25;;;12.80;99.90;;;;;;4974313;28;20096;-69
2024/03/15 07:34:00;;;;;;;25.17;23.55;;;12.80;99.90;;;;;;4966693;28;20053;-67
2024/03/15 07:36:27;;;;;;;25.48;23.67;;;12.90;99.90;;;;;;4948697;28;20242;-70
2024/03/15 07:38:56;;;;;;;25.60;24.00;;;13.00;99.90;;;;;;4967693;28;20062;-68
2024/03/15 07:41:27;;;;;;;27.00;25.02;;;13.00;99.90;;;;;;4963392;28;20046;-70
2024/03/15 07:43:56;;;;;;;26.63;24.60;;;13.00;99.90;;;;;;4949141;28;20479;-67
2024/03/15 07:46:24;;;;;;;32.08;30.17;;;13.00;99.90;;;;;;4965038;28;20134;-69
2024/03/15 07:48:52;;;;;;;29.40;27.25;;;13.00;99.90;;;;;;4953810;28;20049;-69
2024/03/15 07:51:20;;;;;;;29.00;27.10;;;13.00;99.90;;;;;;4941140;28;20044;-70
2024/03/15 07:53:48;;;;;;;26.98;24.88;;;13.00;99.90;;;;;;4964822;28;20051;-69
2024/03/15 07:56:15;;;;;;;28.25;25.95;;;13.00;99.90;;;;;;4966306;28;20053;-69
2024/03/15 07:58:42;;;;;;;28.77;26.23;;;12.80;99.90;;;;;;4968277;28;21075;-67
2024/03/15 08:01:09;;;;;;;26.67;24.23;;;12.70;99.90;;;;;;4970681;28;20431;-70
2024/03/15 08:03:37;;;;;;;26.20;23.95;;;12.60;99.90;;;;;;4962921;28;20057;-68
2024/03/15 08:06:06;;;;;;;26.58;24.58;;;12.60;99.90;;;;;;4945273;28;20046;-69
2024/03/15 08:08:33;;;;;;;26.88;24.58;;;12.50;99.90;;;;;;4970162;28;20123;-68
2024/03/15 08:11:01;;;;;;;23.88;21.83;;;12.50;99.90;;;;;;4965896;28;20046;-68
2024/03/15 08:13:34;;;;;;;24.75;22.65;;;12.50;99.90;;;;;;4961377;28;20231;-68
2024/03/15 08:16:23;;;;;;;24.90;23.00;;;12.40;99.90;;;;;;4965296;28;20043;-68
2024/03/15 08:18:53;;;;;;;25.90;23.85;;;12.40;99.90;;;;;;4973793;28;20137;-68
2024/03/15 08:21:24;;;;;;;26.85;24.45;;;12.40;99.90;;;;;;4969991;28;21177;-67
2024/03/15 08:23:51;;;;;;;25.45;23.42;;;12.50;99.90;;;;;;4968166;28;20061;-68
2024/03/15 08:26:20;;;;;;;25.73;23.10;;;12.40;99.90;;;;;;4971727;28;20460;-69
2024/03/15 08:28:51;;;;;;;27.30;24.70;;;12.30;99.90;;;;;;4970112;28;20715;-67
2024/03/15 08:31:19;;;;;;;30.45;27.25;;;12.40;99.90;;;;;;4971910;28;20443;-67
2024/03/15 08:33:47;;;;;;;28.27;26.02;;;12.50;99.90;;;;;;4953546;28;20057;-68
2024/03/15 08:36:14;;;;;;;30.08;27.67;;;12.50;99.90;;;;;;4961819;28;20042;-70
2024/03/15 08:38:42;;;;;;;31.40;28.70;;;12.50;99.90;;;;;;4966089;28;20058;-69
2024/03/15 08:41:10;;;;;;;37.75;33.55;;;12.50;99.90;;;;;;4968165;28;20057;-68
2024/03/15 08:43:37;;;;;;;34.60;30.80;;;12.40;99.90;;;;;;4961247;28;20090;-69
2024/03/15 08:46:05;;;;;;;33.03;29.92;;;12.40;99.90;;;;;;4970070;28;20401;-70
2024/03/15 08:48:32;;;;;;;37.67;34.08;;;12.50;99.90;;;;;;4968939;28;20035;-70
2024/03/15 08:51:03;;;;;;;34.13;30.83;;;12.40;99.90;;;;;;4969929;28;20038;-68
2024/03/15 08:53:30;;;;;;;33.95;30.45;;;12.50;99.90;;;;;;4950572;28;20098;-68
2024/03/15 08:55:58;;;;;;;28.55;26.15;;;12.50;99.90;;;;;;4970168;28;20068;-69
2024/03/15 08:58:26;;;;;;;32.25;29.23;;;12.60;99.90;;;;;;4952787;28;20084;-68
2024/03/15 09:00:57;;;;;;;35.53;32.28;;;12.60;99.90;;;;;;4971932;28;20038;-69
2024/03/15 09:03:25;;;;;;;29.85;27.27;;;12.60;99.90;;;;;;4969232;28;20180;-67
2024/03/15 09:05:53;;;;;;;37.17;33.63;;;12.70;99.90;;;;;;4967297;28;20054;-69
2024/03/15 09:08:20;;;;;;;33.97;31.02;;;12.70;99.90;;;;;;4955273;28;20072;-69
2024/03/15 09:10:48;;;;;;;32.72;30.08;;;12.80;99.90;;;;;;4954153;28;20050;-70
2024/03/15 09:13:17;;;;;;;36.80;33.40;;;12.90;99.90;;;;;;4966524;28;20051;-69
2024/03/15 09:15:44;;;;;;;31.90;29.33;;;12.90;99.90;;;;;;4969631;28;20046;-69
2024/03/15 09:18:11;;;;;;;31.58;28.55;;;12.90;99.90;;;;;;4967367;28;20049;-70
2024/03/15 09:20:42;;;;;;;34.58;31.58;;;12.90;99.90;;;;;;4971115;28;20062;-69
2024/03/15 09:23:12;;;;;;;34.13;30.92;;;13.00;99.90;;;;;;4974155;28;20050;-69
2024/03/15 09:25:42;;;;;;;42.22;37.97;;;13.00;99.90;;;;;;4967807;28;20046;-70
2024/03/15 09:28:11;;;;;;;37.92;34.50;;;13.20;99.90;;;;;;4972307;28;20688;-70
2024/03/15 09:30:53;;;;;;;30.33;27.88;;;13.30;99.90;;;;;;4968863;28;20577;-70
2024/03/15 09:33:37;;;;;;;30.42;28.10;;;13.30;99.90;;;;;;4971769;28;20051;-69
2024/03/15 09:36:05;;;;;;;31.83;29.40;;;13.40;99.90;;;;;;4967800;28;20046;-69
2024/03/15 09:38:32;;;;;;;33.85;31.02;;;13.40;99.90;;;;;;4953454;28;20058;-70
2024/03/15 09:41:00;;;;;;;33.33;30.63;;;13.50;99.90;;;;;;4974216;28;20137;-69
2024/03/15 09:43:33;;;;;;;32.90;30.20;;;13.40;99.90;;;;;;4963462;28;20044;-70
2024/03/15 09:46:04;;;;;;;33.60;30.00;;;13.40;99.90;;;;;;4958761;28;20071;-69
2024/03/15 09:48:36;;;;;;;31.08;28.38;;;13.40;99.90;;;;;;4944374;28;20062;-69
2024/03/15 09:51:04;;;;;;;31.50;28.77;;;13.40;99.90;;;;;;4948471;28;20057;-67
2024/03/15 09:53:31;;;;;;;31.02;28.50;;;13.30;99.90;;;;;;4946071;28;20129;-69
2024/03/15 09:55:59;;;;;;;30.27;27.80;;;13.20;99.90;;;;;;4954450;28;20042;-69
2024/03/15 09:58:26;;;;;;;32.53;29.67;;;13.20;99.90;;;;;;4959485;28;20047;-70
2024/03/15 10:00:54;;;;;;;37.75;34.20;;;13.20;99.90;;;;;;4947843;28;20046;-70
2024/03/15 10:03:21;;;;;;;31.90;28.95;;;13.40;99.90;;;;;;4963164;28;20115;-68
2024/03/15 10:05:48;;;;;;;30.40;27.80;;;13.60;99.90;;;;;;4957300;28;20124;-67
2024/03/15 10:08:15;;;;;;;30.58;28.08;;;13.70;99.90;;;;;;4960956;28;20573;-69
2024/03/15 10:10:44;;;;;;;30.40;28.08;;;13.80;99.90;;;;;;4958436;28;20116;-69
2024/03/15 10:13:14;;;;;;;28.70;26.40;;;13.80;99.90;;;;;;4967760;28;20051;-69
2024/03/15 10:15:45;;;;;;;31.48;28.77;;;13.70;99.90;;;;;;4968592;28;20047;-70
2024/03/15 10:18:14;;;;;;;30.15;28.15;;;13.60;99.90;;;;;;4970908;28;20125;-69
2024/03/15 10:20:44;;;;;;;30.10;27.73;;;13.60;99.90;;;;;;4968757;28;20141;-69
2024/03/15 10:23:10;;;;;;;31.77;29.40;;;13.60;99.90;;;;;;4970751;28;20065;-70
2024/03/15 10:25:38;;;;;;;29.88;27.60;;;13.70;99.90;;;;;;4973858;28;20046;-69
2024/03/15 10:28:11;;;;;;;30.33;27.70;;;13.80;99.90;;;;;;4976503;28;20519;-68
2024/03/15 10:30:42;;;;;;;31.85;29.25;;;13.80;99.90;;;;;;4969386;28;20050;-69
2024/03/15 10:33:09;;;;;;;31.90;29.20;;;13.80;99.90;;;;;;4966783;28;20046;-69
2024/03/15 10:35:36;;;;;;;29.98;27.67;;;13.80;99.90;;;;;;4979679;28;20060;-68
2024/03/15 10:38:04;;;;;;;31.33;28.48;;;13.80;99.90;;;;;;4956050;28;20558;-69
2024/03/15 10:40:34;;;;;;;31.13;28.58;;;13.60;99.90;;;;;;4971779;28;20089;-70
2024/03/15 10:43:02;;;;;;;30.15;27.48;;;13.60;99.90;;;;;;4978970;28;20053;-70
2024/03/15 10:45:31;;;;;;;32.65;29.80;;;13.50;99.90;;;;;;4969655;28;20057;-70
2024/03/15 10:47:58;;;;;;;31.83;28.45;;;13.40;99.90;;;;;;4976519;28;20228;-69
2024/03/15 10:50:27;;;;;;;27.13;24.25;;;13.30;99.90;;;;;;4978163;28;21862;-70
2024/03/15 10:52:56;;;;;;;30.85;27.50;;;13.00;99.90;;;;;;4967280;28;20722;-69
2024/03/15 10:55:28;;;;;;;30.85;27.75;;;12.80;99.90;;;;;;4969716;28;20627;-68
2024/03/15 10:57:58;;;;;;;29.98;25.80;;;12.60;99.90;;;;;;4966131;28;20058;-71
2024/03/15 11:00:30;;;;;;;28.90;23.42;;;12.60;99.90;;;;;;4967971;28;20053;-72
2024/03/15 11:03:10;;;;;;;26.73;22.13;;;12.50;99.90;;;;;;4967160;28;20059;-73
2024/03/15 11:05:37;;;;;;;28.73;22.85;;;12.50;99.90;;;;;;4958568;28;20055;-71
2024/03/15 11:08:08;;;;;;;28.77;20.92;;;12.60;99.90;;;;;;4973138;28;20042;-69
2024/03/15 11:10:36;;;;;;;30.55;22.92;;;12.70;99.90;;;;;;4970260;28;20046;-71
2024/03/15 11:13:03;;;;;;;36.65;23.08;;;12.70;99.90;;;;;;4962842;28;20760;-71
2024/03/15 11:15:38;;;;;;;20.92;18.48;;;12.80;99.90;;;;;;4973405;28;20078;-71
2024/03/15 11:18:08;;;;;;;;;;;12.90;99.90;;;;;;4958737;28;20074;-70
2024/03/15 11:20:46;;;;;;;24.17;18.17;;;12.90;99.90;;;;;;4978299;28;19956;-70
2024/03/15 11:23:27;;;;;;;20.90;17.88;;;13.00;99.90;;;;;;4962149;28;20050;-70
2024/03/15 11:26:06;;;;;;;20.48;17.90;;;13.20;99.90;;;;;;4963328;28;20054;-71
2024/03/15 11:28:35;;;;;;;21.55;19.30;;;13.40;99.90;;;;;;4965181;28;20120;-71
2024/03/15 11:31:03;;;;;;;23.17;21.05;;;13.60;99.90;;;;;;4947585;28;20388;-71
2024/03/15 11:33:31;;;;;;;23.83;21.83;;;13.70;99.90;;;;;;4964754;28;20570;-70
2024/03/15 11:35:58;;;;;;;25.33;23.52;;;14.10;99.90;;;;;;4969105;28;20149;-68
2024/03/15 11:38:26;;;;;;;27.75;25.33;;;14.30;99.90;;;;;;4971993;28;20050;-70
2024/03/15 11:40:58;;;;;;;28.60;26.60;;;14.40;99.90;;;;;;4970925;28;20120;-70
2024/03/15 11:43:26;;;;;;;29.63;27.73;;;14.60;99.90;;;;;;4967128;28;20057;-70
2024/03/15 11:45:55;;;;;;;31.05;28.88;;;14.60;99.90;;;;;;4949297;28;20695;-69
2024/03/15 11:48:24;;;;;;;28.05;26.10;;;14.70;99.90;;;;;;4971062;28;20069;-70
2024/03/15 11:50:52;;;;;;;28.92;27.13;;;14.80;99.90;;;;;;4963388;28;20053;-70
2024/03/15 11:53:22;;;;;;;30.73;28.73;;;14.80;99.90;;;;;;4964634;28;20630;-70
2024/03/15 11:55:50;;;;;;;31.58;29.55;;;14.80;99.90;;;;;;4953078;28;20042;-68
2024/03/15 11:58:19;;;;;;;31.13;28.75;;;14.90;99.90;;;;;;4938799;28;20053;-69
2024/03/15 12:00:53;;;;;;;31.48;29.23;;;14.90;99.90;;;;;;4954485;28;20035;-69
2024/03/15 12:03:26;;;;;;;32.05;29.92;;;15.00;99.90;;;;;;4965753;28;20061;-68
2024/03/15 12:05:55;;;;;;;31.13;29.10;;;15.00;99.90;;;;;;4959441;28;20550;-69
2024/03/15 12:08:23;;;;;;;31.35;29.45;;;14.90;99.90;;;;;;4966148;28;20045;-70
2024/03/15 12:10:52;;;;;;;32.28;30.30;;;14.90;99.90;;;;;;4965539;28;20642;-70
2024/03/15 12:13:24;;;;;;;32.38;30.27;;;15.00;99.90;;;;;;4962771;28;20038;-69
2024/03/15 12:15:52;;;;;;;35.00;32.90;;;15.40;99.90;;;;;;4963545;28;20516;-69
2024/03/15 12:18:24;;;;;;;37.38;35.38;;;15.90;99.90;;;;;;4952463;28;20105;-70
2024/03/15 12:20:52;;;;;;;33.97;32.08;;;15.70;99.90;;;;;;4939894;28;20058;-68
2024/03/15 12:23:22;;;;;;;30.20;28.50;;;15.50;99.90;;;;;;4969836;28;20053;-69
2024/03/15 12:25:50;;;;;;;31.30;29.35;;;15.30;99.90;;;;;;4953862;28;20125;-67
2024/03/15 12:28:19;;;;;;;32.90;30.90;;;15.10;99.90;;;;;;4973181;28;20582;-69
2024/03/15 12:30:53;;;;;;;33.85;31.45;;;15.00;99.90;;;;;;4968177;28;20046;-69
2024/03/15 12:33:21;;;;;;;31.88;30.15;;;15.10;99.90;;;;;;4965760;28;20071;-70
2024/03/15 12:35:49;;;;;;;33.47;31.17;;;15.20;99.90;;;;;;4966634;28;20558;-68
2024/03/15 12:38:21;;;;;;;29.48;27.65;;;15.20;99.90;;;;;;4968334;28;20046;-68
2024/03/15 12:40:51;;;;;;;33.45;31.35;;;15.30;99.90;;;;;;4968820;28;20073;-70